Time;durP1;ratioP1;P1;durP2;ratioP2;P2;SDS_P1;SDS_P2;PMS_P1;PMS_P2;Temp;Humidity;BMP_temperature;BMP_pressure;BME280_temperature;BME280_humidity;BME280_pressure;Samples;Min_cycle;Max_cycle;Signal;HPM_P1;HPM_P2
2024/02/27 00:03:12;;;;;;;92.80;52.20;;;;;;;6.67;83.53;98006.62;433864;1257;108588;-39
2024/02/27 00:13:20;;;;;;;107.00;58.10;;;;;;;6.55;83.66;98006.10;433920;1255;99250;-40
2024/02/27 00:23:27;;;;;;;109.20;59.00;;;;;;;6.45;84.22;98003.88;433806;1260;110830;-41
2024/02/27 00:33:34;;;;;;;101.00;56.20;;;;;;;6.32;84.15;98009.56;433819;1256;97999;-41
2024/02/27 00:43:42;;;;;;;119.50;65.50;;;;;;;6.15;83.94;98006.23;433772;1257;111555;-41
2024/02/27 00:53:48;;;;;;;110.80;61.80;;;;;;;5.87;83.87;98011.86;433957;1256;107533;-40
2024/02/27 01:03:55;;;;;;;134.30;67.60;;;;;;;5.60;84.11;98018.23;433853;1260;98846;-40
2024/02/27 01:14:02;;;;;;;124.40;68.00;;;;;;;5.33;84.23;98021.45;433875;1255;107990;-39
2024/02/27 01:24:09;;;;;;;99.20;53.30;;;;;;;5.10;84.15;98027.48;433840;1261;99352;-39
2024/02/27 01:34:17;;;;;;;94.90;56.00;;;;;;;4.92;84.20;98024.97;433686;1261;111944;-40
2024/02/27 01:44:24;;;;;;;85.80;50.80;;;;;;;4.90;84.68;98030.49;433773;1270;108307;-41
2024/02/27 01:54:32;;;;;;;124.00;61.70;;;;;;;4.88;84.77;98048.23;433942;1256;99228;-41
2024/02/27 02:04:39;;;;;;;132.60;68.70;;;;;;;4.68;84.95;98049.23;433889;1260;107859;-40
2024/02/27 02:14:48;;;;;;;122.80;64.10;;;;;;;4.72;85.28;98048.23;433788;1261;98542;-40
2024/02/27 02:24:56;;;;;;;111.70;63.20;;;;;;;4.89;85.78;98048.59;434638;1260;111413;-40
2024/02/27 02:35:05;;;;;;;114.40;64.00;;;;;;;5.18;86.09;98046.30;433616;1264;108572;-41
2024/02/27 02:45:14;;;;;;;101.60;58.40;;;;;;;5.40;86.30;98045.17;433681;1271;99310;-40
2024/02/27 02:55:21;;;;;;;;;;;;;;;5.54;86.49;98054.77;433767;1260;108565;-40
2024/02/27 03:05:29;;;;;;;142.30;76.30;;;;;;;5.72;87.02;98067.73;433639;1258;99240;-40
2024/02/27 03:15:37;;;;;;;123.60;68.30;;;;;;;5.80;86.75;98068.81;433634;1262;111111;-42
2024/02/27 03:25:45;;;;;;;100.20;59.50;;;;;;;5.95;86.90;98063.45;433857;1262;108489;-40
2024/02/27 03:35:54;;;;;;;93.20;53.00;;;;;;;6.09;87.03;98068.98;433799;1271;99867;-40
2024/02/27 03:46:02;;;;;;;89.60;49.00;;;;;;;6.23;87.08;98075.46;433563;1264;107546;-40
2024/02/27 03:56:11;;;;;;;88.30;52.50;;;;;;;6.21;86.96;98081.86;433661;1261;98012;-40
2024/02/27 04:06:19;;;;;;;86.00;49.10;;;;;;;6.09;87.10;98091.66;433820;1259;112294;-40
2024/02/27 04:16:27;;;;;;;74.20;45.30;;;;;;;5.94;86.91;98089.09;433210;1262;468468;-40
2024/02/27 04:26:35;;;;;;;72.20;41.20;;;;;;;5.81;86.77;98089.06;434262;1262;98008;-40
2024/02/27 04:36:48;;;;;;;66.70;39.70;;;;;;;5.85;87.20;98094.20;433777;1258;107481;-40
2024/02/27 04:46:56;;;;;;;82.00;47.90;;;;;;;5.92;87.35;98091.01;433697;1260;99203;-40
2024/02/27 04:57:05;;;;;;;91.10;50.90;;;;;;;5.81;87.20;98098.98;433907;1257;111971;-40
2024/02/27 05:07:13;;;;;;;85.60;49.00;;;;;;;5.67;87.10;98101.10;433736;1260;108548;-40
2024/02/27 05:17:21;;;;;;;96.40;54.80;;;;;;;5.58;87.21;98109.42;433774;1257;99219;-40
2024/02/27 05:27:29;;;;;;;98.50;55.40;;;;;;;5.55;87.20;98120.69;433623;1261;108486;-40
2024/02/27 05:37:38;;;;;;;120.30;62.70;;;;;;;5.56;87.50;98128.11;433847;1261;99234;-40
2024/02/27 05:47:46;;;;;;;90.80;53.30;;;;;;;5.62;87.85;98140.42;433838;1257;112230;-40
2024/02/27 05:57:54;;;;;;;98.70;56.60;;;;;;;5.81;87.86;98155.30;433749;1257;108362;-41
2024/02/27 06:08:02;;;;;;;74.20;42.30;;;;;;;6.09;88.26;98162.27;433715;1261;99263;-40
2024/02/27 06:18:13;;;;;;;70.80;41.80;;;;;;;6.31;88.47;98161.59;433886;1262;108468;-40
2024/02/27 06:28:22;;;;;;;67.20;40.00;;;;;;;6.52;88.42;98167.44;433843;1257;99273;-40
2024/02/27 06:38:30;;;;;;;100.50;55.70;;;;;;;6.66;88.35;98178.57;435451;1261;111185;-39
2024/02/27 06:48:38;;;;;;;109.40;59.40;;;;;;;6.78;88.40;98184.80;433669;1257;107212;-39
2024/02/27 06:58:47;;;;;;;85.00;49.00;;;;;;;7.16;88.57;98187.52;433605;1257;100745;-41
2024/02/27 07:08:55;;;;;;;90.80;50.00;;;;;;;7.96;88.89;98196.91;433568;1257;108765;-41
2024/02/27 07:19:03;;;;;;;86.80;51.60;;;;;;;8.93;88.97;98204.02;433604;1257;99232;-42
2024/02/27 07:29:13;;;;;;;55.70;37.70;;;;;;;9.69;88.32;98202.48;433769;1258;112688;-40
2024/02/27 07:39:21;;;;;;;55.60;31.70;;;;;;;9.99;87.58;98206.48;433691;1261;108564;-41
2024/02/27 07:49:29;;;;;;;67.80;38.70;;;;;;;10.87;87.22;98205.42;433739;1263;99279;-41
2024/02/27 07:59:38;;;;;;;63.90;39.90;;;;;;;10.99;85.70;98217.77;433751;1261;108722;-40
2024/02/27 08:09:46;;;;;;;78.80;47.90;;;;;;;11.36;85.34;98221.61;433745;1261;99230;-40
2024/02/27 08:19:55;;;;;;;65.00;38.50;;;;;;;12.03;84.52;98218.38;433941;1260;112411;-42
2024/02/27 08:30:04;;;;;;;56.90;34.50;;;;;;;12.74;83.78;98216.77;433734;1261;108652;-40
2024/02/27 08:40:11;;;;;;;;;;;;;;;13.18;82.82;98219.80;433915;1258;99247;-40
2024/02/27 08:50:19;;;;;;;43.10;27.30;;;;;;;13.48;80.42;98218.24;433857;1260;108618;-41
2024/02/27 09:00:27;;;;;;;40.00;28.20;;;;;;;13.92;79.24;98221.92;433854;1259;99235;-40
2024/02/27 09:10:36;;;;;;;43.40;28.30;;;;;;;14.41;77.50;98226.16;433876;1257;111814;-40
2024/02/27 09:20:44;;;;;;;35.20;23.60;;;;;;;14.78;75.82;98225.88;433768;1260;108699;-40
2024/02/27 09:30:52;;;;;;;30.50;22.40;;;;;;;14.95;73.96;98226.89;433749;1260;98007;-41
2024/02/27 09:41:02;;;;;;;28.40;19.30;;;;;;;15.20;72.78;98224.24;433781;1261;109091;-39
2024/02/27 09:51:11;;;;;;;23.50;16.70;;;;;;;15.29;71.16;98234.83;433781;1260;99125;-40
2024/02/27 10:01:21;;;;;;;27.60;18.20;;;;;;;15.75;69.88;98231.91;433821;1257;112172;-39
2024/02/27 10:11:30;;;;;;;23.40;15.60;;;;;;;16.12;70.42;98229.49;433692;1261;108288;-42
2024/02/27 10:21:39;;;;;;;19.80;14.10;;;;;;;16.41;69.78;98238.45;433830;1257;98799;-39
2024/02/27 10:31:47;;;;;;;20.80;12.50;;;;;;;16.25;68.98;98240.41;433784;1257;108562;-40
2024/02/27 10:41:57;;;;;;;11.50;9.40;;;;;;;16.28;68.88;98243.10;433560;1259;99970;-40
2024/02/27 10:52:06;;;;;;;13.70;10.60;;;;;;;16.32;69.37;98239.73;433585;1259;111909;-40
2024/02/27 11:02:18;;;;;;;10.00;8.20;;;;;;;16.43;69.24;98253.98;433740;1261;107600;-40
2024/02/27 11:12:30;;;;;;;10.80;9.20;;;;;;;16.63;68.53;98245.84;433878;1259;99234;-41
2024/02/27 11:22:40;;;;;;;15.00;10.50;;;;;;;16.99;68.51;98241.73;433736;1258;108588;-41
2024/02/27 11:32:48;;;;;;;14.50;9.00;;;;;;;17.18;67.59;98242.46;433728;1257;99207;-41
2024/02/27 11:42:58;;;;;;;14.40;10.70;;;;;;;17.41;67.69;98240.37;433799;1259;111915;-40
2024/02/27 11:53:32;;;;;;;15.00;10.40;;;;;;;17.74;67.24;98235.11;433755;1262;109214;-40
2024/02/27 12:03:44;;;;;;;15.10;12.20;;;;;;;18.13;66.93;98231.58;433735;1257;97922;-41
2024/02/27 12:13:52;;;;;;;16.90;13.60;;;;;;;17.99;65.15;98230.11;433575;1257;108634;-41
2024/02/27 12:24:14;;;;;;;15.30;11.40;;;;;;;17.97;65.24;98221.89;433629;1261;98003;-41
2024/02/27 12:34:30;;;;;;;13.60;11.90;;;;;;;18.00;64.70;98218.16;433774;1257;111788;-40
2024/02/27 12:44:39;;;;;;;18.70;12.60;;;;;;;17.89;63.19;98213.05;433821;1261;107597;-40
2024/02/27 12:54:47;;;;;;;17.40;13.00;;;;;;;17.93;63.89;98212.30;433684;1258;99154;-41
2024/02/27 13:04:56;;;;;;;14.10;12.50;;;;;;;17.90;62.51;98212.30;433573;1257;108347;-40
2024/02/27 13:15:05;;;;;;;18.20;12.60;;;;;;;17.69;62.90;98212.01;433619;1259;99180;-40
2024/02/27 13:25:14;;;;;;;15.00;11.60;;;;;;;17.60;62.42;98207.61;433554;1259;112901;-41
2024/02/27 13:35:23;;;;;;;23.00;12.40;;;;;;;17.53;62.97;98205.98;433638;1259;108514;-39
2024/02/27 13:45:31;;;;;;;21.00;13.50;;;;;;;17.30;61.94;98203.17;433621;1257;98033;-40
2024/02/27 13:55:38;;;;;;;;;;;;;;;17.21;62.42;98205.99;433556;1258;108635;-40
2024/02/27 14:05:46;;;;;;;22.30;15.00;;;;;;;17.10;62.43;98206.17;433503;1262;99256;-41
2024/02/27 14:15:55;;;;;;;21.10;14.10;;;;;;;16.92;61.94;98213.42;433451;1261;112148;-39
2024/02/27 14:26:03;;;;;;;22.90;16.60;;;;;;;16.73;62.18;98216.20;433311;1262;107328;-41
2024/02/27 14:36:12;;;;;;;20.30;15.00;;;;;;;16.62;62.37;98219.10;433606;1257;99243;-40
2024/02/27 14:46:22;;;;;;;16.20;12.70;;;;;;;16.46;62.82;98223.10;433571;1261;108990;-39
2024/02/27 14:56:30;;;;;;;25.50;12.80;;;;;;;16.15;63.16;98229.48;433463;1258;99285;-40
2024/02/27 15:06:38;;;;;;;22.00;15.50;;;;;;;15.81;63.50;98237.05;433706;1259;111887;-39
2024/02/27 15:16:47;;;;;;;23.90;16.60;;;;;;;15.56;63.29;98252.05;433537;1261;108457;-40
2024/02/27 15:26:55;;;;;;;29.40;19.70;;;;;;;15.37;64.32;98255.23;433550;1259;97945;-40
2024/02/27 15:37:03;;;;;;;30.00;20.70;;;;;;;15.21;65.08;98259.13;433407;1261;108465;-39
2024/02/27 15:47:12;;;;;;;31.10;18.80;;;;;;;15.04;65.63;98266.60;433606;1261;98046;-41
2024/02/27 15:57:19;;;;;;;;;;;;;;;14.92;66.57;98268.52;433590;1261;111904;-40
2024/02/27 16:07:32;;;;;;;25.60;18.90;;;;;;;14.69;67.30;98274.37;433239;1262;401896;-38
2024/02/27 16:17:40;;;;;;;38.30;21.60;;;;;;;14.36;67.65;98279.45;433441;1258;98936;-40
2024/02/27 16:27:48;;;;;;;37.20;22.50;;;;;;;13.98;68.11;98288.83;433549;1262;107715;-39
2024/02/27 16:37:57;;;;;;;39.10;23.20;;;;;;;13.73;68.81;98291.84;433496;1261;98536;-41
2024/02/27 16:48:06;;;;;;;41.90;23.40;;;;;;;13.55;69.36;98296.53;433967;1262;111844;-40
2024/02/27 16:58:14;;;;;;;55.30;34.10;;;;;;;13.44;70.17;98309.45;433547;1262;108752;-41
2024/02/27 17:08:22;;;;;;;50.20;32.10;;;;;;;13.32;70.52;98320.02;433432;1263;99362;-40
2024/02/27 17:18:31;;;;;;;94.90;52.70;;;;;;;13.06;71.03;98322.91;433714;1261;108363;-41
2024/02/27 17:28:39;;;;;;;81.40;44.70;;;;;;;12.87;71.46;98328.01;434524;1259;98096;-40
2024/02/27 17:38:48;;;;;;;152.30;78.00;;;;;;;12.74;71.87;98333.22;433454;1262;110987;-40
2024/02/27 17:48:56;;;;;;;150.20;82.40;;;;;;;12.73;72.51;98335.92;433842;1262;109257;-39
2024/02/27 17:59:04;;;;;;;91.20;53.30;;;;;;;12.50;72.71;98332.15;433533;1257;99253;-40
2024/02/27 18:09:13;;;;;;;102.10;58.50;;;;;;;12.21;72.95;98326.88;433439;1261;108600;-41
2024/02/27 18:19:22;;;;;;;105.40;62.00;;;;;;;11.80;73.18;98336.63;433907;1262;98509;-40
2024/02/27 18:29:31;;;;;;;104.50;59.50;;;;;;;11.55;73.53;98344.71;434041;1261;112357;-40
2024/02/27 18:39:42;;;;;;;130.70;67.70;;;;;;;11.50;74.17;98342.16;433798;1263;108673;-40
2024/02/27 18:49:52;;;;;;;144.10;78.70;;;;;;;11.32;74.56;98348.88;434067;1262;97932;-40
2024/02/27 19:00:02;;;;;;;154.10;85.60;;;;;;;11.06;74.96;98361.90;434839;1271;108530;-41
2024/02/27 19:10:12;;;;;;;137.70;76.50;;;;;;;10.93;75.26;98367.45;435340;1259;99259;-40
2024/02/27 19:20:20;;;;;;;120.90;70.10;;;;;;;10.83;75.47;98370.56;433813;1262;112084;-41
2024/02/27 19:30:29;;;;;;;130.50;69.50;;;;;;;10.86;76.08;98366.63;433461;1263;107696;-40
2024/02/27 19:40:37;;;;;;;113.00;64.80;;;;;;;10.83;76.16;98368.54;433449;1261;97945;-41
2024/02/27 19:50:45;;;;;;;111.50;63.60;;;;;;;10.44;76.14;98373.19;433755;1270;108896;-41
2024/02/27 20:00:54;;;;;;;75.70;41.50;;;;;;;10.26;76.47;98401.92;433429;1262;98292;-41
2024/02/27 20:11:02;;;;;;;58.50;33.60;;;;;;;10.64;78.06;98419.17;433417;1271;112227;-40
2024/02/27 20:21:11;;;;;;;65.80;39.70;;;;;;;11.06;78.48;98411.08;433232;1261;108860;-41
2024/02/27 20:31:20;;;;;;;81.30;47.00;;;;;;;11.26;78.61;98412.73;433826;1258;97938;-41
2024/02/27 20:41:28;;;;;;;49.70;31.40;;;;;;;11.27;78.72;98429.27;433537;1261;108518;-41
2024/02/27 20:51:37;;;;;;;51.00;30.80;;;;;;;11.19;78.78;98428.97;433436;1257;98860;-40
2024/02/27 21:01:44;;;;;;;;;;;;;;;11.16;79.10;98429.19;434473;1263;112001;-41
2024/02/27 21:11:52;;;;;;;47.90;28.20;;;;;;;11.06;79.24;98434.88;435441;1261;108542;-40
2024/02/27 21:22:00;;;;;;;43.80;28.60;;;;;;;10.88;79.37;98446.98;435395;1263;99207;-40
2024/02/27 21:32:08;;;;;;;57.30;35.20;;;;;;;10.65;79.84;98459.97;434931;1262;108657;-41
2024/02/27 21:42:18;;;;;;;72.10;45.60;;;;;;;10.55;80.31;98467.11;433495;1261;98842;-40
2024/02/27 21:52:27;;;;;;;85.80;45.40;;;;;;;10.65;80.76;98473.44;433526;1270;112163;-40
2024/02/27 22:02:33;;;;;;;;;;;;;;;10.69;80.93;98485.65;433491;1259;108486;-40
2024/02/27 22:12:42;;;;;;;75.00;44.40;;;;;;;10.67;81.60;98504.80;433672;1271;99169;-40
2024/02/27 22:22:51;;;;;;;71.90;43.70;;;;;;;10.73;81.95;98514.35;433578;1258;108338;-40
2024/02/27 22:32:57;;;;;;;;;;;;;;;10.79;82.23;98519.11;433582;1264;98813;-41
2024/02/27 22:43:05;;;;;;;73.90;44.80;;;;;;;10.79;82.39;98518.84;433691;1262;112016;-41
2024/02/27 22:53:13;;;;;;;80.50;47.40;;;;;;;10.69;82.62;98521.13;433854;1262;108621;-40
2024/02/27 23:03:22;;;;;;;79.00;48.60;;;;;;;10.55;83.05;98524.17;433800;1257;99213;-39
2024/02/27 23:13:29;;;;;;;;;;;;;;;10.52;83.22;98529.33;433597;1261;108628;-41
2024/02/27 23:23:38;;;;;;;66.10;43.90;;;;;;;10.43;83.28;98528.79;433657;1264;99233;-41
2024/02/27 23:33:47;;;;;;;67.10;43.50;;;;;;;10.39;83.47;98533.98;433755;1257;110855;-40
2024/02/27 23:43:55;;;;;;;64.80;42.70;;;;;;;10.46;83.83;98542.70;433648;1261;107331;-40
2024/02/27 23:54:03;;;;;;;76.40;49.50;;;;;;;10.46;84.01;98545.54;433540;1257;99306;-40
